Time;durP1;ratioP1;P1;durP2;ratioP2;P2;SDS_P1;SDS_P2;PMS_P1;PMS_P2;Temp;Humidity;BMP_temperature;BMP_pressure;BME280_temperature;BME280_humidity;BME280_pressure;Samples;Min_cycle;Max_cycle;Signal;HPM_P1;HPM_P2
2022/02/04 00:03:05;;;;;;;23.85;16.25;;;8.40;99.90;;;;;;5114629;28;20039;-77
2022/02/04 00:10:06;;;;;;;22.38;16.42;;;8.30;99.90;;;;;;5112901;28;20031;-75
2022/02/04 00:23:16;;;;;;;20.08;13.57;;;8.30;99.90;;;;;;5113917;28;20467;-76
2022/02/04 00:28:34;;;;;;;26.25;15.93;;;8.30;99.90;;;;;;5113345;28;20067;-77
2022/02/04 00:31:26;;;;;;;19.33;14.07;;;8.30;99.90;;;;;;5113867;28;20046;-76
2022/02/04 00:33:57;;;;;;;23.40;15.90;;;8.20;99.90;;;;;;5114199;28;20513;-76
2022/02/04 00:36:34;;;;;;;20.70;14.13;;;8.30;99.90;;;;;;5114000;28;20031;-77
2022/02/04 00:39:05;;;;;;;22.75;14.30;;;8.30;99.90;;;;;;5113398;28;20080;-75
2022/02/04 00:41:34;;;;;;;21.67;14.80;;;8.30;99.90;;;;;;5113668;28;20019;-74
2022/02/04 00:44:01;;;;;;;16.38;13.52;;;8.30;99.90;;;;;;5113426;28;20493;-77
2022/02/04 00:46:42;;;;;;;17.75;13.02;;;8.20;99.90;;;;;;5112521;28;20039;-76
2022/02/04 00:51:56;;;;;;;15.13;12.93;;;8.20;99.90;;;;;;5113066;28;20016;-77
2022/02/04 01:26:36;;;;;;;17.88;11.63;;;8.20;99.90;;;;;;5112572;28;20034;-77
2022/02/04 01:29:03;;;;;;;18.25;10.82;;;8.30;99.90;;;;;;5111727;28;20028;-76
2022/02/04 01:31:29;;;;;;;14.48;11.10;;;8.30;99.90;;;;;;5112216;28;20119;-77
2022/02/04 01:33:55;;;;;;;14.15;10.52;;;8.30;99.90;;;;;;5112587;28;20047;-77
2022/02/04 01:36:21;;;;;;;13.30;10.48;;;8.20;99.90;;;;;;5111587;28;20028;-76
2022/02/04 01:38:47;;;;;;;15.05;9.40;;;8.20;99.90;;;;;;5117758;28;20028;-77
2022/02/04 01:41:13;;;;;;;14.68;10.13;;;8.20;99.90;;;;;;5132654;28;20043;-77
2022/02/04 01:43:41;;;;;;;13.48;10.23;;;8.20;99.90;;;;;;5132294;27;20080;-76
2022/02/04 01:46:09;;;;;;;11.68;9.13;;;8.30;99.90;;;;;;5114208;28;20015;-76
2022/02/04 01:48:35;;;;;;;10.52;8.95;;;8.30;99.90;;;;;;5132687;27;20020;-76
2022/02/04 01:51:02;;;;;;;13.48;9.30;;;8.30;99.90;;;;;;5132968;27;20027;-76
2022/02/04 01:53:28;;;;;;;17.67;9.25;;;8.30;99.90;;;;;;5132540;28;20048;-76
2022/02/04 01:55:56;;;;;;;11.75;9.10;;;8.30;99.90;;;;;;5132183;27;20063;-76
2022/02/04 01:58:22;;;;;;;10.20;8.88;;;8.20;99.90;;;;;;5132443;28;20027;-76
2022/02/04 02:00:48;;;;;;;12.68;8.80;;;8.20;99.90;;;;;;5132851;27;20035;-75
2022/02/04 02:03:14;;;;;;;13.80;9.60;;;8.20;99.90;;;;;;5131602;27;20040;-75
2022/02/04 02:05:40;;;;;;;12.05;9.00;;;8.20;99.90;;;;;;5132958;28;20088;-75
2022/02/04 02:08:08;;;;;;;15.60;9.07;;;8.20;99.90;;;;;;5132635;28;20449;-76
2022/02/04 02:10:33;;;;;;;12.18;8.52;;;8.20;99.90;;;;;;5132181;28;20062;-75
2022/02/04 02:43:05;;;;;;;12.65;8.23;;;8.20;99.90;;;;;;5136563;27;20053;-76
2022/02/04 02:48:19;;;;;;;13.48;7.45;;;8.30;99.90;;;;;;5136300;27;20073;-77
2022/02/04 02:51:27;;;;;;;11.68;7.20;;;8.20;99.90;;;;;;5135815;27;20023;-76
2022/02/04 02:58:54;;;;;;;11.57;7.35;;;8.30;99.90;;;;;;5135849;27;20432;-76
2022/02/04 03:01:22;;;;;;;13.98;6.68;;;8.30;99.90;;;;;;5135531;27;20039;-76
2022/02/04 03:03:53;;;;;;;8.02;7.20;;;8.30;99.90;;;;;;5136746;27;20106;-76
2022/02/04 03:06:19;;;;;;;11.52;6.82;;;8.30;99.90;;;;;;5135281;27;20051;-76
2022/02/04 03:08:44;;;;;;;9.60;6.85;;;8.30;99.90;;;;;;5136412;27;20053;-76
2022/02/04 03:11:10;;;;;;;9.40;7.45;;;8.30;99.90;;;;;;5135806;27;20019;-76
2022/02/04 03:13:35;;;;;;;13.38;8.27;;;8.30;99.90;;;;;;5135398;27;20054;-76
2022/02/04 03:16:08;;;;;;;10.68;7.78;;;8.30;99.90;;;;;;5135998;27;20343;-75
2022/02/04 03:18:37;;;;;;;11.60;7.00;;;8.20;99.90;;;;;;5135646;27;20031;-76
2022/02/04 03:21:29;;;;;;;9.25;7.25;;;8.30;99.90;;;;;;5134736;27;20098;-75
2022/02/04 03:24:03;;;;;;;7.28;6.45;;;8.30;99.90;;;;;;5134983;27;20039;-77
2022/02/04 03:26:43;;;;;;;11.98;8.30;;;8.20;99.90;;;;;;5135206;27;20158;-78
2022/02/04 03:29:09;;;;;;;11.25;7.32;;;8.20;99.90;;;;;;5134211;27;20043;-77
2022/02/04 03:31:43;;;;;;;10.68;7.80;;;8.20;99.90;;;;;;5135109;27;20082;-77
2022/02/04 03:34:09;;;;;;;9.55;6.82;;;8.20;99.90;;;;;;5134400;27;20038;-76
2022/02/04 03:36:35;;;;;;;9.05;6.68;;;8.20;99.90;;;;;;5135143;27;20023;-75
2022/02/04 03:39:04;;;;;;;8.85;6.13;;;8.20;99.90;;;;;;5136126;27;20480;-75
2022/02/04 03:41:29;;;;;;;11.40;6.88;;;8.20;99.90;;;;;;5134735;27;20093;-76
2022/02/04 03:43:55;;;;;;;8.52;5.82;;;8.30;99.90;;;;;;5135173;27;20027;-74
2022/02/04 03:46:21;;;;;;;7.28;6.13;;;8.30;99.90;;;;;;5134598;27;20023;-76
2022/02/04 03:48:46;;;;;;;7.97;5.75;;;8.20;99.90;;;;;;5134507;27;20068;-74
2022/02/04 03:51:12;;;;;;;7.05;5.63;;;8.20;99.90;;;;;;5136740;27;20101;-76
2022/02/04 03:53:38;;;;;;;6.53;5.43;;;8.20;99.90;;;;;;5135405;27;20024;-77
2022/02/04 03:56:04;;;;;;;10.13;5.43;;;8.20;99.90;;;;;;5134613;27;20077;-74
2022/02/04 03:58:31;;;;;;;10.75;5.45;;;8.20;99.90;;;;;;5135399;27;20027;-76
2022/02/04 04:00:58;;;;;;;5.47;4.95;;;8.30;99.90;;;;;;5135106;27;20355;-77
2022/02/04 04:03:23;;;;;;;9.30;5.18;;;8.30;99.90;;;;;;5134339;27;20035;-77
2022/02/04 04:05:50;;;;;;;6.53;5.18;;;8.20;99.90;;;;;;5135074;27;20027;-77
2022/02/04 04:08:17;;;;;;;9.27;5.57;;;8.20;99.90;;;;;;5135131;27;20042;-76
2022/02/04 04:10:44;;;;;;;5.63;4.57;;;8.20;99.90;;;;;;5134532;27;20038;-76
2022/02/04 04:13:11;;;;;;;7.38;4.70;;;8.20;99.90;;;;;;5134912;27;20114;-76
2022/02/04 04:15:36;;;;;;;6.00;5.15;;;8.20;99.90;;;;;;5134966;27;20359;-76
2022/02/04 04:18:03;;;;;;;7.55;4.97;;;8.20;99.90;;;;;;5134568;27;20034;-76
2022/02/04 04:20:29;;;;;;;7.45;5.03;;;8.20;99.90;;;;;;5135300;27;20100;-76
2022/02/04 04:22:56;;;;;;;7.38;4.80;;;8.30;99.90;;;;;;5135293;27;20092;-76
2022/02/04 04:25:22;;;;;;;7.00;5.35;;;8.20;99.90;;;;;;5133148;27;20362;-76
2022/02/04 04:27:49;;;;;;;8.93;4.85;;;8.20;99.90;;;;;;5134294;27;20035;-76
2022/02/04 04:30:19;;;;;;;6.28;4.88;;;8.20;99.90;;;;;;5134257;27;20070;-76
2022/02/04 04:32:45;;;;;;;5.97;4.22;;;8.10;99.90;;;;;;5133800;27;20440;-76
2022/02/04 04:35:15;;;;;;;7.40;4.13;;;8.20;99.90;;;;;;5134270;27;20027;-76
2022/02/04 04:37:47;;;;;;;7.40;4.53;;;8.20;99.90;;;;;;5133901;27;20712;-76
2022/02/04 05:29:12;;;;;;;3.20;2.88;;;8.30;99.90;;;;;;5133838;28;20041;-77
2022/02/04 05:31:38;;;;;;;5.40;3.03;;;8.20;99.90;;;;;;5133952;28;20015;-77
2022/02/04 05:34:04;;;;;;;4.32;2.58;;;8.30;99.90;;;;;;5133145;28;20121;-77
2022/02/04 05:36:33;;;;;;;5.05;3.10;;;8.30;99.90;;;;;;5133229;28;20474;-74
2022/02/04 05:38:58;;;;;;;7.88;2.75;;;8.30;99.90;;;;;;5133588;28;20038;-77
2022/02/04 05:41:29;;;;;;;6.15;3.25;;;8.30;99.90;;;;;;5132376;28;20019;-77
2022/02/04 05:43:58;;;;;;;7.03;2.78;;;8.30;99.90;;;;;;5133949;28;20046;-77
2022/02/04 05:46:31;;;;;;;8.23;2.65;;;8.30;99.90;;;;;;5133418;27;20055;-77
2022/02/04 05:48:58;;;;;;;5.85;2.60;;;8.30;99.90;;;;;;5132806;27;20027;-77
2022/02/04 05:51:50;;;;;;;7.88;4.20;;;8.30;99.90;;;;;;5133253;27;20094;-76
2022/02/04 05:54:23;;;;;;;11.18;3.33;;;8.40;99.90;;;;;;5133619;27;20608;-77
2022/02/04 06:02:24;;;;;;;3.72;2.50;;;8.40;99.90;;;;;;5131899;27;20061;-75
2022/02/04 06:10:55;;;;;;;7.97;2.67;;;8.50;99.90;;;;;;5092296;28;20501;-77
2022/02/04 06:13:40;;;;;;;5.82;3.50;;;8.50;99.90;;;;;;5134616;27;20095;-77
2022/02/04 06:24:03;;;;;;;4.28;2.90;;;8.50;99.90;;;;;;5136621;27;20079;-78
2022/02/04 06:26:30;;;;;;;4.45;3.47;;;8.50;99.90;;;;;;5136005;27;20416;-76
2022/02/04 06:28:56;;;;;;;6.38;3.67;;;8.50;99.90;;;;;;5136469;27;20094;-75
2022/02/04 06:31:22;;;;;;;5.28;4.35;;;9.00;99.90;;;;;;5136835;27;20053;-75
2022/02/04 06:33:48;;;;;;;5.72;3.25;;;8.50;99.90;;;;;;5136282;27;20023;-75
2022/02/04 06:36:14;;;;;;;7.53;4.07;;;8.50;99.90;;;;;;5135994;27;20367;-73
2022/02/04 06:38:39;;;;;;;7.18;3.35;;;8.50;99.90;;;;;;5135634;27;20026;-75
2022/02/04 06:41:05;;;;;;;4.55;3.70;;;8.50;99.90;;;;;;5121754;27;20051;-76
2022/02/04 06:43:31;;;;;;;4.55;3.40;;;8.50;99.90;;;;;;5118530;27;20019;-77
2022/02/04 06:45:57;;;;;;;4.95;3.03;;;8.50;99.90;;;;;;5114870;27;20030;-76
2022/02/04 06:48:22;;;;;;;4.05;3.55;;;8.50;99.90;;;;;;5114056;27;20031;-76
2022/02/04 06:50:48;;;;;;;11.63;3.95;;;8.50;99.90;;;;;;5113904;27;20484;-77
2022/02/04 06:53:14;;;;;;;6.20;3.97;;;8.50;99.90;;;;;;5115569;27;20119;-77
2022/02/04 06:55:40;;;;;;;5.40;4.82;;;8.50;99.90;;;;;;5113833;27;20028;-76
2022/02/04 06:58:10;;;;;;;10.60;4.45;;;8.50;99.90;;;;;;5113680;27;20050;-77
2022/02/04 07:00:36;;;;;;;20.85;7.43;;;8.50;99.90;;;;;;5113514;27;20020;-77
2022/02/04 07:03:01;;;;;;;7.43;6.00;;;8.50;99.90;;;;;;5115071;27;20043;-76
2022/02/04 07:05:27;;;;;;;6.95;6.28;;;8.50;99.90;;;;;;5112725;28;20028;-77
2022/02/04 07:08:36;;;;;;;6.32;5.78;;;8.50;99.90;;;;;;5113693;28;20035;-77
2022/02/04 07:13:19;;;;;;;6.43;4.90;;;8.40;99.90;;;;;;5130289;27;20019;-76
2022/02/04 07:15:55;;;;;;;5.97;4.97;;;8.40;99.90;;;;;;5121146;27;20082;-76
2022/02/04 07:21:03;;;;;;;8.15;5.90;;;8.40;99.90;;;;;;5114351;28;20024;-76
2022/02/04 07:23:29;;;;;;;7.47;5.47;;;8.40;99.90;;;;;;5114544;28;20032;-77
2022/02/04 07:25:55;;;;;;;6.82;6.18;;;8.50;99.90;;;;;;5114746;28;20079;-77
2022/02/04 07:28:21;;;;;;;6.60;6.00;;;8.40;99.90;;;;;;5113942;28;20127;-76
2022/02/04 07:30:47;;;;;;;8.32;7.07;;;8.50;99.90;;;;;;5114142;28;20481;-77
2022/02/04 07:33:21;;;;;;;11.30;7.28;;;8.40;99.90;;;;;;5113720;28;20065;-77
2022/02/04 07:41:11;;;;;;;9.10;7.88;;;8.50;99.90;;;;;;5134068;27;20112;-77
2022/02/04 07:43:37;;;;;;;8.43;7.63;;;8.50;99.90;;;;;;5133416;27;20019;-76
2022/02/04 07:46:04;;;;;;;10.57;8.35;;;8.60;99.90;;;;;;5111563;28;20035;-76
2022/02/04 07:48:29;;;;;;;9.32;7.80;;;8.60;99.90;;;;;;5111104;28;20073;-75
2022/02/04 07:50:55;;;;;;;8.27;7.47;;;8.60;99.90;;;;;;5127311;27;20015;-74
2022/02/04 07:53:24;;;;;;;9.40;7.05;;;8.60;99.90;;;;;;5133495;27;20027;-76
2022/02/04 07:55:50;;;;;;;7.00;6.40;;;8.70;99.90;;;;;;5124364;27;20031;-76
2022/02/04 07:58:16;;;;;;;8.10;7.35;;;8.70;99.90;;;;;;5112678;28;20436;-76
2022/02/04 08:00:43;;;;;;;7.85;7.15;;;8.70;99.90;;;;;;5113996;28;20459;-75
2022/02/04 08:05:49;;;;;;;6.95;6.30;;;8.70;99.90;;;;;;5115100;28;20119;-74
2022/02/04 08:08:42;;;;;;;8.40;7.63;;;8.70;99.90;;;;;;5114293;28;20063;-75
2022/02/04 08:24:32;;;;;;;8.88;5.40;;;8.80;99.90;;;;;;5112030;27;20035;-76
2022/02/04 08:29:54;;;;;;;8.13;5.88;;;8.90;99.90;;;;;;5113095;28;20042;-77
2022/02/04 08:53:52;;;;;;;5.88;5.35;;;9.10;99.90;;;;;;5118830;27;20099;-78
2022/02/04 08:56:22;;;;;;;6.22;5.63;;;9.10;99.90;;;;;;5114601;28;20026;-80
2022/02/04 08:58:59;;;;;;;6.57;5.97;;;9.00;99.90;;;;;;5118303;28;20027;-78
2022/02/04 09:01:38;;;;;;;7.70;6.60;;;9.00;99.90;;;;;;5117594;28;20055;-78
2022/02/04 09:04:08;;;;;;;7.05;6.35;;;9.10;99.90;;;;;;5116701;28;20035;-80
2022/02/04 09:06:44;;;;;;;7.88;6.75;;;9.10;99.90;;;;;;5115481;28;20024;-81
2022/02/04 09:09:24;;;;;;;6.30;5.78;;;9.10;99.90;;;;;;5114993;28;20053;-77
2022/02/04 09:11:54;;;;;;;;;;;9.10;99.90;;;;;;5115560;28;20055;-77
2022/02/04 09:22:42;;;;;;;7.13;6.47;;;9.20;99.90;;;;;;5114126;28;20517;-77
2022/02/04 09:25:09;;;;;;;8.70;6.68;;;9.20;99.90;;;;;;5113981;28;20051;-76
2022/02/04 09:27:35;;;;;;;7.10;6.20;;;9.20;99.90;;;;;;5113093;28;20036;-77
2022/02/04 09:30:03;;;;;;;8.77;6.47;;;9.20;99.90;;;;;;5113514;28;20023;-78
2022/02/04 09:32:29;;;;;;;7.00;6.40;;;9.20;99.90;;;;;;5113284;28;20099;-77
2022/02/04 09:34:55;;;;;;;7.43;5.80;;;9.30;99.90;;;;;;5113217;28;20503;-77
2022/02/04 09:37:21;;;;;;;6.60;5.85;;;9.30;99.90;;;;;;5113620;28;20020;-77
2022/02/04 09:39:46;;;;;;;5.78;5.35;;;9.30;99.90;;;;;;5114206;28;20305;-77
2022/02/04 09:42:15;;;;;;;5.55;5.10;;;9.30;99.90;;;;;;5114390;28;20073;-78
2022/02/04 09:44:41;;;;;;;7.20;5.38;;;9.30;99.90;;;;;;5117291;28;20098;-77
2022/02/04 09:47:06;;;;;;;3.97;3.67;;;9.30;99.90;;;;;;5116252;28;20126;-78
2022/02/04 09:49:38;;;;;;;6.50;5.43;;;9.40;99.90;;;;;;5117765;28;20027;-77
2022/02/04 10:07:00;;;;;;;10.30;5.72;;;9.40;99.90;;;;;;5071677;28;20050;-80
2022/02/04 10:19:29;;;;;;;5.15;4.75;;;9.50;99.90;;;;;;5116172;27;20024;-79
2022/02/04 10:21:56;;;;;;;6.10;5.28;;;9.50;99.90;;;;;;5117825;28;20381;-77
2022/02/04 10:24:27;;;;;;;4.88;4.47;;;9.60;99.90;;;;;;5116533;28;20023;-76
2022/02/04 10:27:18;;;;;;;5.32;4.80;;;9.60;99.90;;;;;;5116750;28;20378;-76
2022/02/04 10:30:04;;;;;;;5.22;4.72;;;9.60;99.90;;;;;;5116315;28;20451;-78
2022/02/04 10:32:33;;;;;;;4.35;4.05;;;9.60;99.90;;;;;;5118547;28;20023;-77
2022/02/04 10:35:12;;;;;;;4.55;4.10;;;9.60;99.90;;;;;;5117317;28;20019;-78
2022/02/04 10:37:55;;;;;;;4.47;4.10;;;9.60;99.90;;;;;;5115518;28;20048;-76
2022/02/04 10:41:04;;;;;;;3.90;3.60;;;9.60;99.90;;;;;;5115438;28;20050;-77
2022/02/04 10:46:37;;;;;;;6.93;4.22;;;9.60;99.90;;;;;;5115801;28;20462;-78
2022/02/04 10:54:25;;;;;;;3.97;3.67;;;9.50;99.90;;;;;;5121913;27;20020;-78
2022/02/04 11:22:02;;;;;;;3.63;3.33;;;9.70;99.90;;;;;;5136188;27;20099;-77
2022/02/04 11:35:39;;;;;;;3.58;2.80;;;9.60;99.90;;;;;;5129364;27;20024;-78
2022/02/04 11:47:54;;;;;;;4.10;3.22;;;9.80;99.90;;;;;;5129380;27;20399;-77
2022/02/04 11:55:09;;;;;;;2.85;2.65;;;9.90;99.90;;;;;;5133148;27;20034;-78
2022/02/04 11:57:37;;;;;;;7.68;3.15;;;9.90;99.90;;;;;;5140421;27;20029;-76
2022/02/04 12:00:18;;;;;;;2.65;2.45;;;9.90;99.90;;;;;;5129949;27;20051;-76
2022/02/04 12:02:51;;;;;;;5.53;2.88;;;9.90;99.90;;;;;;5132096;27;20047;-76
2022/02/04 12:05:17;;;;;;;7.20;2.67;;;9.80;99.90;;;;;;5114473;27;20034;-76
2022/02/04 12:07:50;;;;;;;4.07;2.70;;;9.80;99.90;;;;;;5132449;27;20030;-76
2022/02/04 12:10:20;;;;;;;3.08;2.83;;;9.80;99.90;;;;;;5132923;27;20033;-76
2022/02/04 12:12:53;;;;;;;3.00;2.45;;;9.80;99.90;;;;;;5132825;27;20086;-77
2022/02/04 12:15:27;;;;;;;3.25;2.97;;;9.80;99.90;;;;;;5130465;27;20058;-77
2022/02/04 12:18:06;;;;;;;3.13;2.83;;;9.80;99.90;;;;;;5121666;27;20054;-77
2022/02/04 12:20:50;;;;;;;3.28;2.42;;;9.80;99.90;;;;;;5130722;27;20047;-77
2022/02/04 12:23:28;;;;;;;2.92;2.45;;;9.70;99.90;;;;;;5131775;27;20027;-77
2022/02/04 12:26:08;;;;;;;2.47;2.28;;;9.70;99.90;;;;;;5133639;27;20027;-76
2022/02/04 12:28:39;;;;;;;4.50;2.55;;;9.80;99.90;;;;;;5129435;27;20027;-76
2022/02/04 12:31:17;;;;;;;4.50;2.47;;;9.80;99.90;;;;;;5130920;27;20031;-77
2022/02/04 12:33:54;;;;;;;4.93;3.10;;;9.80;99.90;;;;;;5132359;27;20059;-77
2022/02/04 12:36:24;;;;;;;3.88;2.90;;;9.80;99.90;;;;;;5132448;27;20031;-76
2022/02/04 12:38:54;;;;;;;2.85;2.40;;;9.70;99.90;;;;;;5132739;27;20080;-77
2022/02/04 12:41:31;;;;;;;4.22;3.42;;;9.70;99.90;;;;;;5131488;27;20051;-77
2022/02/04 12:44:00;;;;;;;2.90;2.55;;;9.60;99.90;;;;;;5128998;27;20070;-75
2022/02/04 12:46:28;;;;;;;3.72;3.40;;;9.50;99.90;;;;;;5131467;27;20058;-74
2022/02/04 12:49:05;;;;;;;3.28;2.97;;;9.40;99.90;;;;;;5131284;27;20461;-76
2022/02/04 12:52:08;;;;;;;5.95;3.13;;;9.40;99.90;;;;;;5129803;27;20020;-75
2022/02/04 12:54:41;;;;;;;6.03;3.10;;;9.30;99.90;;;;;;5131930;27;20552;-75
2022/02/04 13:11:00;;;;;;;8.15;3.35;;;9.00;99.90;;;;;;5130224;27;20027;-74
2022/02/04 13:13:35;;;;;;;5.00;3.78;;;9.00;99.90;;;;;;5118008;27;20479;-74
2022/02/04 13:16:01;;;;;;;6.53;3.47;;;9.00;99.90;;;;;;5100662;28;20386;-74
2022/02/04 13:18:27;;;;;;;4.53;3.65;;;9.00;99.90;;;;;;5131120;27;20034;-74
2022/02/04 13:20:56;;;;;;;6.60;3.42;;;9.00;99.90;;;;;;5119251;28;20030;-73
2022/02/04 13:23:27;;;;;;;6.75;3.60;;;8.90;99.90;;;;;;5117381;27;20045;-74
2022/02/04 13:25:57;;;;;;;3.90;3.50;;;8.90;99.90;;;;;;5119268;27;20200;-75
2022/02/04 13:28:44;;;;;;;5.68;3.05;;;8.90;99.90;;;;;;5116452;28;20039;-74
2022/02/04 13:31:13;;;;;;;8.38;3.72;;;8.80;99.90;;;;;;5117832;28;20031;-75
2022/02/04 13:33:38;;;;;;;6.22;3.88;;;8.80;99.90;;;;;;5120214;27;20066;-74
2022/02/04 13:38:52;;;;;;;4.40;2.97;;;8.80;99.90;;;;;;5120341;28;20031;-74
2022/02/04 13:44:38;;;;;;;3.10;1.30;;;8.10;99.90;;;;;;5128129;28;20038;-72
2022/02/04 13:57:53;;;;;;;10.85;5.32;;;5.50;99.90;;;;;;5115821;28;20397;-74
2022/02/04 14:00:32;;;;;;;5.60;3.10;;;5.40;99.90;;;;;;5117417;28;20030;-75
2022/02/04 14:03:17;;;;;;;4.30;2.30;;;5.30;99.90;;;;;;5113396;28;20047;-75
2022/02/04 14:05:53;;;;;;;3.47;1.60;;;5.20;99.90;;;;;;5130109;27;20055;-75
2022/02/04 14:08:32;;;;;;;5.88;0.93;;;5.10;99.90;;;;;;5109525;28;20176;-75
2022/02/04 14:11:00;;;;;;;3.92;1.40;;;5.00;99.90;;;;;;5111857;28;20231;-75
2022/02/04 14:13:28;;;;;;;1.00;0.73;;;5.00;99.90;;;;;;5113799;27;20023;-75
2022/02/04 14:16:06;;;;;;;2.80;1.90;;;4.90;99.90;;;;;;5120599;27;20506;-75
2022/02/04 14:18:35;;;;;;;2.63;0.70;;;4.90;99.90;;;;;;5122058;28;20092;-75
2022/02/04 14:21:01;;;;;;;2.40;0.80;;;4.80;99.90;;;;;;5126898;28;20020;-74
2022/02/04 14:23:26;;;;;;;2.17;0.80;;;4.80;99.90;;;;;;5120461;28;20116;-75
2022/02/04 14:26:08;;;;;;;4.75;1.90;;;4.80;99.90;;;;;;5121977;28;20466;-76
2022/02/04 15:02:59;;;;;;;7.65;3.17;;;5.80;99.90;;;;;;5121872;27;20042;-75
2022/02/04 15:05:30;;;;;;;8.18;4.20;;;5.10;99.90;;;;;;5125279;27;20054;-75
2022/02/04 15:08:01;;;;;;;21.15;9.13;;;5.10;99.90;;;;;;5120379;27;20036;-77
2022/02/04 15:10:30;;;;;;;7.47;4.03;;;5.10;99.90;;;;;;5122309;27;20838;-78
2022/02/04 15:12:56;;;;;;;6.30;2.17;;;5.10;99.90;;;;;;5121207;27;20491;-75
2022/02/04 15:15:22;;;;;;;9.10;4.40;;;5.00;99.90;;;;;;5123265;27;20024;-77
2022/02/04 15:17:48;;;;;;;7.80;4.20;;;5.10;99.90;;;;;;5126163;27;20391;-77
2022/02/04 15:20:14;;;;;;;10.43;3.65;;;5.00;99.90;;;;;;5119411;27;20027;-75
2022/02/04 15:22:39;;;;;;;27.27;11.05;;;5.00;99.90;;;;;;5117832;27;20034;-77
2022/02/04 15:25:14;;;;;;;5.57;3.53;;;5.00;99.90;;;;;;5113214;27;20035;-77
2022/02/04 15:27:47;;;;;;;18.90;6.60;;;5.00;99.90;;;;;;5118395;27;20031;-78
2022/02/04 15:30:21;;;;;;;21.25;8.75;;;5.10;99.90;;;;;;5118266;27;20107;-77
2022/02/04 15:32:47;;;;;;;22.50;9.32;;;5.00;99.90;;;;;;5119122;27;20467;-78
2022/02/04 15:35:12;;;;;;;13.38;6.03;;;5.00;99.90;;;;;;5110850;27;20053;-78
2022/02/04 15:37:38;;;;;;;7.13;3.65;;;4.80;99.90;;;;;;5118391;27;20038;-78
2022/02/04 15:40:04;;;;;;;4.68;2.60;;;4.80;99.90;;;;;;5118569;27;20110;-77
2022/02/04 15:42:34;;;;;;;5.45;2.22;;;4.40;99.90;;;;;;5119533;27;20091;-76
2022/02/04 15:51:15;;;;;;;3.75;1.70;;;4.80;99.90;;;;;;5050713;28;20090;-77
2022/02/04 15:54:04;;;;;;;7.35;3.15;;;4.80;99.90;;;;;;5114670;27;20031;-75
2022/02/04 16:00:12;;;;;;;9.00;3.25;;;4.70;99.90;;;;;;5117710;27;20355;-76
2022/02/04 16:04:52;;;;;;;6.13;1.05;;;4.60;99.90;;;;;;5102877;28;20408;-77
2022/02/04 16:07:19;;;;;;;4.22;0.80;;;4.70;99.90;;;;;;5118957;27;20039;-77
2022/02/04 16:09:56;;;;;;;7.22;1.17;;;4.60;99.90;;;;;;5131772;27;20071;-77
2022/02/04 16:12:34;;;;;;;2.60;0.65;;;4.70;99.90;;;;;;5121965;27;20110;-77
2022/02/04 16:15:30;;;;;;;6.53;0.80;;;4.70;99.90;;;;;;5120283;27;20557;-77
2022/02/04 16:17:58;;;;;;;4.78;1.08;;;4.70;99.90;;;;;;5127612;27;20050;-78
2022/02/04 16:23:13;;;;;;;7.75;1.00;;;4.80;99.90;;;;;;5122266;27;20382;-78
2022/02/04 16:30:57;;;;;;;1.27;0.50;;;4.90;99.90;;;;;;5132822;27;20022;-77
2022/02/04 16:33:23;;;;;;;1.48;0.43;;;4.70;99.90;;;;;;5133268;27;20015;-76
2022/02/04 16:35:49;;;;;;;1.42;0.60;;;4.50;99.90;;;;;;5112694;28;20038;-78
2022/02/04 16:38:19;;;;;;;9.02;1.65;;;4.40;99.90;;;;;;5118348;27;20076;-78
2022/02/04 16:40:46;;;;;;;4.32;0.70;;;4.30;99.90;;;;;;5123626;27;20033;-77
2022/02/04 16:43:15;;;;;;;2.20;0.70;;;4.20;99.90;;;;;;5113577;27;20023;-76
2022/02/04 16:45:41;;;;;;;3.45;0.70;;;4.10;99.90;;;;;;5110535;27;20020;-77
2022/02/04 16:48:07;;;;;;;3.58;0.80;;;4.10;99.90;;;;;;5109646;28;20417;-76
2022/02/04 16:50:32;;;;;;;4.82;1.75;;;4.20;99.90;;;;;;5122701;27;20019;-76
2022/02/04 16:52:58;;;;;;;2.67;0.80;;;4.20;99.90;;;;;;5131685;27;20101;-76
2022/02/04 16:55:24;;;;;;;3.47;0.93;;;4.20;99.90;;;;;;5131933;27;20050;-76
2022/02/04 16:57:50;;;;;;;4.15;0.80;;;4.20;99.90;;;;;;5132200;27;20019;-77
2022/02/04 17:00:21;;;;;;;6.85;1.23;;;4.10;99.90;;;;;;5132883;27;20098;-76
2022/02/04 17:02:49;;;;;;;3.55;0.98;;;4.10;99.90;;;;;;5132541;27;20079;-77
2022/02/04 17:05:15;;;;;;;10.95;2.00;;;4.00;99.90;;;;;;5131642;27;20076;-77
2022/02/04 17:07:43;;;;;;;11.02;2.05;;;4.00;99.90;;;;;;5127374;27;20035;-77
2022/02/04 17:10:10;;;;;;;9.77;1.65;;;4.10;99.90;;;;;;5121998;27;20442;-77
2022/02/04 17:12:42;;;;;;;7.20;1.58;;;4.10;99.90;;;;;;5120923;27;20058;-75
2022/02/04 17:15:11;;;;;;;8.57;1.50;;;4.10;99.90;;;;;;5119299;27;20023;-77
2022/02/04 17:17:36;;;;;;;4.03;1.58;;;4.10;99.90;;;;;;5119218;27;20496;-77
2022/02/04 17:20:10;;;;;;;13.15;1.90;;;4.10;99.90;;;;;;5120847;27;20114;-77
2022/02/04 17:22:37;;;;;;;11.30;1.75;;;4.30;99.90;;;;;;5118461;27;20509;-77
2022/02/04 17:25:09;;;;;;;15.85;2.10;;;4.30;99.90;;;;;;5119612;27;20051;-77
2022/02/04 17:27:43;;;;;;;9.07;2.22;;;4.40;99.90;;;;;;5118690;28;20027;-77
2022/02/04 17:30:11;;;;;;;6.13;1.75;;;4.40;99.90;;;;;;5115728;28;20015;-77
2022/02/04 17:32:39;;;;;;;12.32;2.15;;;4.50;99.90;;;;;;5116349;28;20577;-77
2022/02/04 17:35:06;;;;;;;11.70;2.47;;;4.50;99.90;;;;;;5117157;28;20024;-77
2022/02/04 17:37:32;;;;;;;6.03;1.67;;;4.50;99.90;;;;;;5122283;28;20019;-75
2022/02/04 17:39:58;;;;;;;9.60;1.75;;;4.50;99.90;;;;;;5116024;28;20106;-77
2022/02/04 17:42:26;;;;;;;12.25;2.50;;;4.50;99.90;;;;;;5117378;28;20042;-77
2022/02/04 17:44:54;;;;;;;6.95;2.42;;;5.00;99.90;;;;;;5116595;28;20378;-77
2022/02/04 17:47:24;;;;;;;14.85;2.55;;;4.60;99.90;;;;;;5117123;28;20177;-76
2022/02/04 17:49:59;;;;;;;7.85;2.00;;;4.80;99.90;;;;;;5120443;28;20024;-76
2022/02/04 17:52:39;;;;;;;11.55;1.98;;;4.80;99.90;;;;;;5118912;28;20123;-77
2022/02/04 17:55:11;;;;;;;5.50;2.28;;;4.90;99.90;;;;;;5121046;28;20047;-76
2022/02/04 17:58:09;;;;;;;8.13;2.78;;;4.90;99.90;;;;;;5119440;28;20023;-76
2022/02/04 18:05:56;;;;;;;11.48;2.63;;;5.00;99.90;;;;;;5113620;28;20046;-76
2022/02/04 18:08:23;;;;;;;19.83;2.85;;;4.90;99.90;;;;;;5129473;27;21215;-76
2022/02/04 18:10:49;;;;;;;19.17;3.10;;;5.00;99.90;;;;;;5117718;27;20016;-76
2022/02/04 18:13:16;;;;;;;11.57;4.43;;;5.00;99.90;;;;;;5114035;28;20019;-76
2022/02/04 18:15:42;;;;;;;12.30;3.25;;;5.00;99.90;;;;;;5113595;28;20436;-78
2022/02/04 18:18:12;;;;;;;12.73;4.28;;;5.00;99.90;;;;;;5114511;27;20027;-75
2022/02/04 18:20:41;;;;;;;16.80;5.35;;;5.00;99.90;;;;;;5114681;28;20042;-76
2022/02/04 18:23:07;;;;;;;15.45;3.47;;;5.10;99.90;;;;;;5114549;28;20024;-75
2022/02/04 18:25:33;;;;;;;16.42;4.60;;;5.10;99.90;;;;;;5120861;27;20371;-76
2022/02/04 18:28:01;;;;;;;7.82;4.10;;;5.20;99.90;;;;;;5113878;28;20482;-76
2022/02/04 18:30:29;;;;;;;9.45;3.88;;;5.20;99.90;;;;;;5114577;28;20268;-75
2022/02/04 18:32:58;;;;;;;15.15;3.95;;;5.40;99.90;;;;;;5115240;28;20020;-76
2022/02/04 18:35:24;;;;;;;8.13;4.32;;;5.40;99.90;;;;;;5114264;27;20587;-75
2022/02/04 18:38:10;;;;;;;8.57;3.70;;;5.30;99.90;;;;;;5117901;27;20047;-77
2022/02/04 18:41:07;;;;;;;11.43;3.58;;;5.40;99.90;;;;;;5115682;28;20020;-77
2022/02/04 18:48:58;;;;;;;9.75;2.85;;;5.60;99.90;;;;;;5113735;27;20081;-77
2022/02/04 18:59:36;;;;;;;13.93;3.67;;;5.60;99.90;;;;;;5115897;27;20426;-77
2022/02/04 19:02:02;;;;;;;11.63;2.95;;;5.50;99.90;;;;;;5114864;28;20368;-76
2022/02/04 19:04:35;;;;;;;8.63;2.78;;;5.50;99.90;;;;;;5114018;27;20015;-77
2022/02/04 19:07:15;;;;;;;11.52;3.10;;;5.50;99.90;;;;;;5114385;28;20095;-77
2022/02/04 19:09:44;;;;;;;7.00;2.75;;;5.50;99.90;;;;;;5114087;27;20039;-77
2022/02/04 19:12:14;;;;;;;13.80;2.45;;;5.50;99.90;;;;;;5114779;28;20051;-77
2022/02/04 19:24:44;;;;;;;12.75;2.50;;;5.80;99.90;;;;;;5114641;28;20024;-78
2022/02/04 19:27:10;;;;;;;9.70;2.05;;;5.90;99.90;;;;;;5114517;27;20084;-77
2022/02/04 19:29:42;;;;;;;20.40;3.80;;;5.90;99.90;;;;;;5114216;27;20031;-78
2022/02/04 19:32:07;;;;;;;13.48;2.80;;;5.90;99.90;;;;;;5113930;28;20095;-78
2022/02/04 19:34:33;;;;;;;9.60;2.20;;;5.80;99.90;;;;;;5114138;28;20130;-77
2022/02/04 19:36:59;;;;;;;10.15;2.05;;;5.80;99.90;;;;;;5115120;28;20359;-77
2022/02/04 19:39:27;;;;;;;8.95;1.98;;;5.80;99.90;;;;;;5115047;28;20094;-77
2022/02/04 19:42:25;;;;;;;11.93;2.15;;;5.70;99.90;;;;;;5117255;28;20028;-78
2022/02/04 19:44:48;;;;;;;7.30;1.77;;;5.80;99.90;;;;;;5113197;28;20068;-76
2022/02/04 19:47:16;;;;;;;6.22;1.38;;;5.70;99.90;;;;;;5114127;28;20042;-77
2022/02/04 19:50:36;;;;;;;7.90;1.52;;;5.70;99.90;;;;;;5115441;28;20036;-79
2022/02/04 19:52:45;;;;;;;6.28;1.50;;;5.70;99.90;;;;;;5103923;28;20043;-81
2022/02/04 20:25:01;;;;;;;5.95;1.40;;;6.00;99.90;;;;;;5114650;28;20120;-81
2022/02/04 20:27:28;;;;;;;8.68;1.13;;;6.60;99.90;;;;;;5112875;28;20085;-80
2022/02/04 20:29:55;;;;;;;3.72;1.00;;;6.10;99.90;;;;;;5114366;28;20024;-80
2022/02/04 20:32:20;;;;;;;9.50;1.63;;;6.10;99.90;;;;;;5113870;28;20051;-79
2022/02/04 20:34:46;;;;;;;31.75;4.05;;;6.00;99.90;;;;;;5113593;28;20476;-80
2022/02/04 20:37:12;;;;;;;9.55;1.77;;;6.00;99.90;;;;;;5113902;28;20379;-80